sensor_id;sensor_type;location;lat;lon;timestamp;temperature;humidity
21031;DHT22;61072;47.808;7.636;2022-10-26T06:05:03;16.30;99.90
21031;DHT22;61072;47.808;7.636;2022-10-26T06:07:30;16.20;99.90
21031;DHT22;61072;47.808;7.636;2022-10-26T06:09:58;16.20;99.90
21031;DHT22;61072;47.808;7.636;2022-10-26T06:12:25;16.20;99.90
21031;DHT22;61072;47.808;7.636;2022-10-26T06:14:52;16.10;99.90
21031;DHT22;61072;47.808;7.636;2022-10-26T06:17:37;16.10;99.90
21031;DHT22;61072;47.808;7.636;2022-10-26T06:20:20;16.10;99.90
21031;DHT22;61072;47.808;7.636;2022-10-26T06:22:56;16.10;99.90
21031;DHT22;61072;47.808;7.636;2022-10-26T06:25:28;16.00;99.90
21031;DHT22;61072;47.808;7.636;2022-10-26T06:28:15;16.00;99.90
21031;DHT22;61072;47.808;7.636;2022-10-26T06:30:45;16.00;99.90
21031;DHT22;61072;47.808;7.636;2022-10-26T06:33:12;16.10;99.90
21031;DHT22;61072;47.808;7.636;2022-10-26T06:38:43;16.10;99.90
21031;DHT22;61072;47.808;7.636;2022-10-26T06:41:14;16.20;99.90
21031;DHT22;61072;47.808;7.636;2022-10-26T06:43:44;16.30;99.90
21031;DHT22;61072;47.808;7.636;2022-10-26T06:54:28;16.40;99.90
21031;DHT22;61072;47.808;7.636;2022-10-26T06:56:57;16.40;99.90
21031;DHT22;61072;47.808;7.636;2022-10-26T06:59:31;16.50;99.90
21031;DHT22;61072;47.808;7.636;2022-10-26T07:02:02;16.60;99.90
21031;DHT22;61072;47.808;7.636;2022-10-26T07:04:32;16.70;99.90
21031;DHT22;61072;47.808;7.636;2022-10-26T07:06:58;16.70;99.90
21031;DHT22;61072;47.808;7.636;2022-10-26T07:09:25;16.80;99.90
21031;DHT22;61072;47.808;7.636;2022-10-26T07:11:52;16.80;99.90
21031;DHT22;61072;47.808;7.636;2022-10-26T07:14:18;16.80;99.90
21031;DHT22;61072;47.808;7.636;2022-10-26T07:16:45;16.90;99.90
21031;DHT22;61072;47.808;7.636;2022-10-26T07:19:12;16.90;99.90
21031;DHT22;61072;47.808;7.636;2022-10-26T07:21:38;17.00;99.90
21031;DHT22;61072;47.808;7.636;2022-10-26T07:24:05;17.10;99.90
21031;DHT22;61072;47.808;7.636;2022-10-26T07:26:32;17.20;99.90
21031;DHT22;61072;47.808;7.636;2022-10-26T07:28:59;17.30;99.90
21031;DHT22;61072;47.808;7.636;2022-10-26T07:31:26;17.40;99.90
21031;DHT22;61072;47.808;7.636;2022-10-26T07:33:53;17.40;99.90
21031;DHT22;61072;47.808;7.636;2022-10-26T07:36:20;17.50;99.90
21031;DHT22;61072;47.808;7.636;2022-10-26T07:38:49;17.60;99.90
21031;DHT22;61072;47.808;7.636;2022-10-26T07:41:16;17.70;99.90
21031;DHT22;61072;47.808;7.636;2022-10-26T07:43:42;17.70;99.90
21031;DHT22;61072;47.808;7.636;2022-10-26T07:46:11;17.80;99.90
21031;DHT22;61072;47.808;7.636;2022-10-26T07:48:38;17.90;99.90
21031;DHT22;61072;47.808;7.636;2022-10-26T07:51:06;17.90;99.90
21031;DHT22;61072;47.808;7.636;2022-10-26T07:53:33;17.90;99.90
21031;DHT22;61072;47.808;7.636;2022-10-26T07:56:00;17.90;99.90
21031;DHT22;61072;47.808;7.636;2022-10-26T07:58:26;18.00;99.90
21031;DHT22;61072;47.808;7.636;2022-10-26T08:00:54;18.00;99.90
21031;DHT22;61072;47.808;7.636;2022-10-26T08:03:20;18.10;99.90
21031;DHT22;61072;47.808;7.636;2022-10-26T08:05:50;18.20;99.90
21031;DHT22;61072;47.808;7.636;2022-10-26T08:08:21;18.30;99.90
21031;DHT22;61072;47.808;7.636;2022-10-26T08:10:48;18.40;99.90
21031;DHT22;61072;47.808;7.636;2022-10-26T08:13:14;18.40;99.90
21031;DHT22;61072;47.808;7.636;2022-10-26T08:15:41;18.50;99.90
21031;DHT22;61072;47.808;7.636;2022-10-26T08:18:08;18.60;99.90
21031;DHT22;61072;47.808;7.636;2022-10-26T08:20:35;18.60;99.90
21031;DHT22;61072;47.808;7.636;2022-10-26T08:23:01;18.60;99.90
21031;DHT22;61072;47.808;7.636;2022-10-26T08:25:32;18.70;99.90
21031;DHT22;61072;47.808;7.636;2022-10-26T08:28:02;18.80;99.90
21031;DHT22;61072;47.808;7.636;2022-10-26T08:30:30;18.70;99.90
21031;DHT22;61072;47.808;7.636;2022-10-26T08:32:58;18.80;99.90
21031;DHT22;61072;47.808;7.636;2022-10-26T08:35:25;18.90;99.90
21031;DHT22;61072;47.808;7.636;2022-10-26T08:37:52;18.90;99.90
21031;DHT22;61072;47.808;7.636;2022-10-26T08:40:23;19.00;99.90
21031;DHT22;61072;47.808;7.636;2022-10-26T08:42:54;19.00;99.90
21031;DHT22;61072;47.808;7.636;2022-10-26T08:45:27;19.10;99.90
21031;DHT22;61072;47.808;7.636;2022-10-26T08:48:05;19.10;99.90
21031;DHT22;61072;47.808;7.636;2022-10-26T08:50:39;19.20;99.90
21031;DHT22;61072;47.808;7.636;2022-10-26T08:53:23;19.20;99.90
21031;DHT22;61072;47.808;7.636;2022-10-26T08:56:12;19.20;99.90
21031;DHT22;61072;47.808;7.636;2022-10-26T08:59:02;19.20;99.90
21031;DHT22;61072;47.808;7.636;2022-10-26T09:01:33;19.30;99.90
21031;DHT22;61072;47.808;7.636;2022-10-26T09:04:01;19.30;99.90
21031;DHT22;61072;47.808;7.636;2022-10-26T09:09:13;19.40;99.90
21031;DHT22;61072;47.808;7.636;2022-10-26T09:12:27;19.40;99.90
21031;DHT22;61072;47.808;7.636;2022-10-26T09:26:00;19.60;99.90
21031;DHT22;61072;47.808;7.636;2022-10-26T09:28:34;19.60;99.90
21031;DHT22;61072;47.808;7.636;2022-10-26T09:31:03;19.60;99.90
21031;DHT22;61072;47.808;7.636;2022-10-26T09:33:35;19.60;99.90
21031;DHT22;61072;47.808;7.636;2022-10-26T09:36:22;19.60;99.90
21031;DHT22;61072;47.808;7.636;2022-10-26T09:39:01;19.60;99.90
21031;DHT22;61072;47.808;7.636;2022-10-26T09:41:39;19.60;99.90
21031;DHT22;61072;47.808;7.636;2022-10-26T09:44:30;19.60;99.90
21031;DHT22;61072;47.808;7.636;2022-10-26T09:47:28;19.50;99.90
21031;DHT22;61072;47.808;7.636;2022-10-26T09:50:26;19.50;99.90
21031;DHT22;61072;47.808;7.636;2022-10-26T09:52:54;19.50;99.90
21031;DHT22;61072;47.808;7.636;2022-10-26T09:55:21;19.50;99.90
21031;DHT22;61072;47.808;7.636;2022-10-26T09:57:52;19.50;99.90
21031;DHT22;61072;47.808;7.636;2022-10-26T10:00:21;19.40;99.90
21031;DHT22;61072;47.808;7.636;2022-10-26T10:02:53;19.40;99.90
21031;DHT22;61072;47.808;7.636;2022-10-26T10:05:33;19.30;99.90
21031;DHT22;61072;47.808;7.636;2022-10-26T10:08:23;19.40;99.90
21031;DHT22;61072;47.808;7.636;2022-10-26T10:11:01;19.40;99.90
21031;DHT22;61072;47.808;7.636;2022-10-26T10:13:31;19.40;99.90
21031;DHT22;61072;47.808;7.636;2022-10-26T10:18:30;19.40;99.90
21031;DHT22;61072;47.808;7.636;2022-10-26T10:20:58;19.40;99.90
21031;DHT22;61072;47.808;7.636;2022-10-26T10:23:26;19.40;99.90
21031;DHT22;61072;47.808;7.636;2022-10-26T10:26:06;19.50;99.90
21031;DHT22;61072;47.808;7.636;2022-10-26T10:28:33;19.40;99.90
21031;DHT22;61072;47.808;7.636;2022-10-26T10:31:12;19.40;99.90
21031;DHT22;61072;47.808;7.636;2022-10-26T10:33:43;19.40;99.90
21031;DHT22;61072;47.808;7.636;2022-10-26T10:36:19;19.40;99.90
21031;DHT22;61072;47.808;7.636;2022-10-26T10:38:49;19.40;99.90
21031;DHT22;61072;47.808;7.636;2022-10-26T10:41:31;19.40;99.90
21031;DHT22;61072;47.808;7.636;2022-10-26T10:44:20;19.40;99.90
21031;DHT22;61072;47.808;7.636;2022-10-26T10:46:48;19.50;99.90
21031;DHT22;61072;47.808;7.636;2022-10-26T10:49:20;19.50;99.90
21031;DHT22;61072;47.808;7.636;2022-10-26T10:51:48;19.50;99.90
21031;DHT22;61072;47.808;7.636;2022-10-26T10:54:36;19.50;99.90
21031;DHT22;61072;47.808;7.636;2022-10-26T10:57:36;19.50;99.90
21031;DHT22;61072;47.808;7.636;2022-10-26T11:00:08;19.50;99.90
21031;DHT22;61072;47.808;7.636;2022-10-26T11:08:05;19.60;99.90
21031;DHT22;61072;47.808;7.636;2022-10-26T11:10:37;19.60;99.90
21031;DHT22;61072;47.808;7.636;2022-10-26T11:13:39;19.60;99.90
21031;DHT22;61072;47.808;7.636;2022-10-26T11:16:12;19.60;99.90
21031;DHT22;61072;47.808;7.636;2022-10-26T11:19:29;19.60;99.90
21031;DHT22;61072;47.808;7.636;2022-10-26T11:21:36;19.70;99.90
21031;DHT22;61072;47.808;7.636;2022-10-26T11:26:50;19.80;99.90
21031;DHT22;61072;47.808;7.636;2022-10-26T11:29:30;19.80;99.90
21031;DHT22;61072;47.808;7.636;2022-10-26T11:32:22;19.80;99.90
21031;DHT22;61072;47.808;7.636;2022-10-26T11:34:59;19.80;99.90
21031;DHT22;61072;47.808;7.636;2022-10-26T11:37:36;19.80;99.90
21031;DHT22;61072;47.808;7.636;2022-10-26T11:43:13;19.80;99.90
21031;DHT22;61072;47.808;7.636;2022-10-26T11:45:43;19.90;99.90
21031;DHT22;61072;47.808;7.636;2022-10-26T11:48:26;19.80;99.90
21031;DHT22;61072;47.808;7.636;2022-10-26T11:50:56;19.80;99.90
21031;DHT22;61072;47.808;7.636;2022-10-26T11:53:36;19.90;99.90
21031;DHT22;61072;47.808;7.636;2022-10-26T11:56:11;19.90;99.90
21031;DHT22;61072;47.808;7.636;2022-10-26T11:58:39;20.00;99.90
21031;DHT22;61072;47.808;7.636;2022-10-26T12:01:11;20.00;99.90
21031;DHT22;61072;47.808;7.636;2022-10-26T12:03:50;20.00;99.90
21031;DHT22;61072;47.808;7.636;2022-10-26T12:06:22;20.00;99.90
21031;DHT22;61072;47.808;7.636;2022-10-26T12:11:44;20.10;99.90
21031;DHT22;61072;47.808;7.636;2022-10-26T12:14:38;20.10;99.90
21031;DHT22;61072;47.808;7.636;2022-10-26T12:17:20;20.20;99.90
21031;DHT22;61072;47.808;7.636;2022-10-26T12:22:44;20.30;99.90
21031;DHT22;61072;47.808;7.636;2022-10-26T12:35:38;20.40;99.90
21031;DHT22;61072;47.808;7.636;2022-10-26T12:43:38;20.40;99.90
21031;DHT22;61072;47.808;7.636;2022-10-26T12:48:56;20.40;99.90
21031;DHT22;61072;47.808;7.636;2022-10-26T12:56:48;20.50;99.90
21031;DHT22;61072;47.808;7.636;2022-10-26T13:07:47;20.70;99.90
21031;DHT22;61072;47.808;7.636;2022-10-26T13:10:18;20.60;99.90
21031;DHT22;61072;47.808;7.636;2022-10-26T13:12:54;20.70;99.90
21031;DHT22;61072;47.808;7.636;2022-10-26T13:18:15;20.70;99.90
21031;DHT22;61072;47.808;7.636;2022-10-26T13:21:34;20.70;99.90
21031;DHT22;61072;47.808;7.636;2022-10-26T13:23:58;20.70;99.90
21031;DHT22;61072;47.808;7.636;2022-10-26T13:26:32;20.70;99.90
21031;DHT22;61072;47.808;7.636;2022-10-26T13:29:18;20.60;99.90
21031;DHT22;61072;47.808;7.636;2022-10-26T13:39:42;20.70;99.90
21031;DHT22;61072;47.808;7.636;2022-10-26T13:42:18;20.70;99.90
21031;DHT22;61072;47.808;7.636;2022-10-26T13:45:12;20.70;99.90
21031;DHT22;61072;47.808;7.636;2022-10-26T13:50:23;20.70;99.90
21031;DHT22;61072;47.808;7.636;2022-10-26T13:52:57;20.70;99.90
21031;DHT22;61072;47.808;7.636;2022-10-26T13:55:30;20.70;99.90
21031;DHT22;61072;47.808;7.636;2022-10-26T14:03:30;20.70;99.90
21031;DHT22;61072;47.808;7.636;2022-10-26T14:05:57;20.60;99.90
21031;DHT22;61072;47.808;7.636;2022-10-26T14:08:24;20.60;99.90
21031;DHT22;61072;47.808;7.636;2022-10-26T14:10:58;20.60;99.90
21031;DHT22;61072;47.808;7.636;2022-10-26T14:13:26;20.60;99.90
21031;DHT22;61072;47.808;7.636;2022-10-26T14:15:55;20.60;99.90
21031;DHT22;61072;47.808;7.636;2022-10-26T14:18:27;20.60;99.90
21031;DHT22;61072;47.808;7.636;2022-10-26T14:21:00;20.60;99.90
21031;DHT22;61072;47.808;7.636;2022-10-26T14:23:35;20.60;99.90
21031;DHT22;61072;47.808;7.636;2022-10-26T14:26:03;20.60;99.90
21031;DHT22;61072;47.808;7.636;2022-10-26T14:28:31;20.60;99.90
21031;DHT22;61072;47.808;7.636;2022-10-26T14:33:44;20.50;99.90
21031;DHT22;61072;47.808;7.636;2022-10-26T14:36:12;20.50;99.90
21031;DHT22;61072;47.808;7.636;2022-10-26T14:38:44;20.50;99.90
21031;DHT22;61072;47.808;7.636;2022-10-26T14:41:15;20.50;99.90
21031;DHT22;61072;47.808;7.636;2022-10-26T14:43:43;20.50;99.90
21031;DHT22;61072;47.808;7.636;2022-10-26T14:46:17;20.40;99.90
21031;DHT22;61072;47.808;7.636;2022-10-26T14:48:58;20.40;99.90
21031;DHT22;61072;47.808;7.636;2022-10-26T14:51:27;20.40;99.90
21031;DHT22;61072;47.808;7.636;2022-10-26T14:53:56;20.40;99.90
21031;DHT22;61072;47.808;7.636;2022-10-26T15:02:15;20.30;99.90
21031;DHT22;61072;47.808;7.636;2022-10-26T15:07:50;20.30;99.90
21031;DHT22;61072;47.808;7.636;2022-10-26T15:15:51;20.20;99.90
21031;DHT22;61072;47.808;7.636;2022-10-26T15:18:26;20.10;99.90
21031;DHT22;61072;47.808;7.636;2022-10-26T15:20:54;20.10;99.90
21031;DHT22;61072;47.808;7.636;2022-10-26T15:23:23;20.00;99.90
21031;DHT22;61072;47.808;7.636;2022-10-26T15:25:56;19.90;99.90
21031;DHT22;61072;47.808;7.636;2022-10-26T15:28:36;19.90;99.90
21031;DHT22;61072;47.808;7.636;2022-10-26T15:31:27;19.90;99.90
21031;DHT22;61072;47.808;7.636;2022-10-26T15:36:24;19.70;99.90
21031;DHT22;61072;47.808;7.636;2022-10-26T15:38:51;19.70;99.90
21031;DHT22;61072;47.808;7.636;2022-10-26T15:41:32;19.60;99.90
21031;DHT22;61072;47.808;7.636;2022-10-26T15:44:10;19.60;99.90
21031;DHT22;61072;47.808;7.636;2022-10-26T15:46:39;19.50;99.90
21031;DHT22;61072;47.808;7.636;2022-10-26T15:49:07;19.50;99.90
21031;DHT22;61072;47.808;7.636;2022-10-26T15:51:39;19.40;99.90
21031;DHT22;61072;47.808;7.636;2022-10-26T15:54:07;19.40;99.90
21031;DHT22;61072;47.808;7.636;2022-10-26T15:56:35;19.30;99.90
21031;DHT22;61072;47.808;7.636;2022-10-26T15:59:02;19.30;99.90
21031;DHT22;61072;47.808;7.636;2022-10-26T16:01:29;19.20;99.90
21031;DHT22;61072;47.808;7.636;2022-10-26T16:03:55;19.10;99.90
21031;DHT22;61072;47.808;7.636;2022-10-26T16:08:51;18.90;99.90
21031;DHT22;61072;47.808;7.636;2022-10-26T16:13:45;18.90;99.90
21031;DHT22;61072;47.808;7.636;2022-10-26T16:16:14;18.80;99.90
21031;DHT22;61072;47.808;7.636;2022-10-26T16:18:41;18.80;99.90
21031;DHT22;61072;47.808;7.636;2022-10-26T16:21:12;18.70;99.90
21031;DHT22;61072;47.808;7.636;2022-10-26T16:23:40;18.60;99.90
21031;DHT22;61072;47.808;7.636;2022-10-26T16:26:07;18.50;99.90
21031;DHT22;61072;47.808;7.636;2022-10-26T16:28:34;18.50;99.90
21031;DHT22;61072;47.808;7.636;2022-10-26T16:31:03;18.40;99.90
21031;DHT22;61072;47.808;7.636;2022-10-26T16:33:31;18.30;99.90
21031;DHT22;61072;47.808;7.636;2022-10-26T16:35:59;18.30;99.90
21031;DHT22;61072;47.808;7.636;2022-10-26T16:38:26;18.20;99.90
21031;DHT22;61072;47.808;7.636;2022-10-26T16:41:11;18.10;99.90
21031;DHT22;61072;47.808;7.636;2022-10-26T16:43:43;18.00;99.90
21031;DHT22;61072;47.808;7.636;2022-10-26T16:46:15;18.00;99.90
21031;DHT22;61072;47.808;7.636;2022-10-26T16:48:44;17.90;99.90
21031;DHT22;61072;47.808;7.636;2022-10-26T16:51:14;17.80;99.90
21031;DHT22;61072;47.808;7.636;2022-10-26T16:53:41;17.70;99.90
21031;DHT22;61072;47.808;7.636;2022-10-26T16:56:13;17.70;99.90
21031;DHT22;61072;47.808;7.636;2022-10-26T16:58:40;17.60;99.90
21031;DHT22;61072;47.808;7.636;2022-10-26T17:01:07;17.60;99.90
21031;DHT22;61072;47.808;7.636;2022-10-26T17:03:35;17.50;99.90
21031;DHT22;61072;47.808;7.636;2022-10-26T17:06:04;17.40;99.90
21031;DHT22;61072;47.808;7.636;2022-10-26T17:08:33;17.40;99.90
21031;DHT22;61072;47.808;7.636;2022-10-26T17:11:03;17.50;99.90
21031;DHT22;61072;47.808;7.636;2022-10-26T17:13:30;17.40;99.90
21031;DHT22;61072;47.808;7.636;2022-10-26T17:16:17;17.30;99.90
21031;DHT22;61072;47.808;7.636;2022-10-26T17:18:45;17.30;99.90
21031;DHT22;61072;47.808;7.636;2022-10-26T17:21:14;17.30;99.90
21031;DHT22;61072;47.808;7.636;2022-10-26T17:23:41;17.30;99.90
21031;DHT22;61072;47.808;7.636;2022-10-26T17:26:10;17.20;99.90
21031;DHT22;61072;47.808;7.636;2022-10-26T17:28:37;17.20;99.90
21031;DHT22;61072;47.808;7.636;2022-10-26T17:31:13;17.20;99.90
21031;DHT22;61072;47.808;7.636;2022-10-26T17:33:41;17.20;99.90
21031;DHT22;61072;47.808;7.636;2022-10-26T17:36:11;17.20;99.90
21031;DHT22;61072;47.808;7.636;2022-10-26T17:38:40;17.20;99.90
21031;DHT22;61072;47.808;7.636;2022-10-26T17:41:12;17.10;99.90
21031;DHT22;61072;47.808;7.636;2022-10-26T17:43:40;17.10;99.90
21031;DHT22;61072;47.808;7.636;2022-10-26T17:46:10;17.00;99.90
21031;DHT22;61072;47.808;7.636;2022-10-26T17:48:38;17.00;99.90
21031;DHT22;61072;47.808;7.636;2022-10-26T17:51:11;16.90;99.90
21031;DHT22;61072;47.808;7.636;2022-10-26T17:53:38;16.90;99.90
21031;DHT22;61072;47.808;7.636;2022-10-26T17:56:16;16.80;99.90
21031;DHT22;61072;47.808;7.636;2022-10-26T17:58:43;16.90;99.90
21031;DHT22;61072;47.808;7.636;2022-10-26T18:01:11;16.80;99.90
21031;DHT22;61072;47.808;7.636;2022-10-26T18:03:39;16.80;99.90
21031;DHT22;61072;47.808;7.636;2022-10-26T18:06:06;16.80;99.90
21031;DHT22;61072;47.808;7.636;2022-10-26T18:08:35;16.80;99.90
21031;DHT22;61072;47.808;7.636;2022-10-26T18:11:02;16.80;99.90
21031;DHT22;61072;47.808;7.636;2022-10-26T18:16:13;16.70;99.90
21031;DHT22;61072;47.808;7.636;2022-10-26T18:18:45;16.70;99.90
21031;DHT22;61072;47.808;7.636;2022-10-26T18:21:18;16.70;99.90
21031;DHT22;61072;47.808;7.636;2022-10-26T18:28:00;16.60;99.90
21031;DHT22;61072;47.808;7.636;2022-10-26T18:34:05;16.50;99.90
21031;DHT22;61072;47.808;7.636;2022-10-26T18:37:01;16.50;99.90
21031;DHT22;61072;47.808;7.636;2022-10-26T18:39:46;16.50;99.90
21031;DHT22;61072;47.808;7.636;2022-10-26T18:42:12;16.50;99.90
21031;DHT22;61072;47.808;7.636;2022-10-26T18:44:48;16.50;99.90
21031;DHT22;61072;47.808;7.636;2022-10-26T18:47:15;16.40;99.90
21031;DHT22;61072;47.808;7.636;2022-10-26T18:49:42;16.40;99.90
21031;DHT22;61072;47.808;7.636;2022-10-26T18:52:13;16.30;99.90
21031;DHT22;61072;47.808;7.636;2022-10-26T18:54:45;16.30;99.90
21031;DHT22;61072;47.808;7.636;2022-10-26T18:57:15;16.30;99.90
21031;DHT22;61072;47.808;7.636;2022-10-26T18:59:46;16.30;99.90
21031;DHT22;61072;47.808;7.636;2022-10-26T19:02:25;16.30;99.90
21031;DHT22;61072;47.808;7.636;2022-10-26T19:05:00;16.30;99.90
21031;DHT22;61072;47.808;7.636;2022-10-26T19:07:33;16.20;99.90
21031;DHT22;61072;47.808;7.636;2022-10-26T19:10:02;16.20;99.90
21031;DHT22;61072;47.808;7.636;2022-10-26T19:12:32;16.20;99.90
21031;DHT22;61072;47.808;7.636;2022-10-26T19:15:06;16.20;99.90
21031;DHT22;61072;47.808;7.636;2022-10-26T19:17:38;16.20;99.90
21031;DHT22;61072;47.808;7.636;2022-10-26T19:20:12;16.20;99.90
21031;DHT22;61072;47.808;7.636;2022-10-26T19:22:53;16.20;99.90
21031;DHT22;61072;47.808;7.636;2022-10-26T19:25:31;16.10;99.90
21031;DHT22;61072;47.808;7.636;2022-10-26T19:28:03;16.10;99.90
21031;DHT22;61072;47.808;7.636;2022-10-26T19:30:37;16.10;99.90
21031;DHT22;61072;47.808;7.636;2022-10-26T19:33:07;16.10;99.90
21031;DHT22;61072;47.808;7.636;2022-10-26T19:35:40;16.10;99.90
21031;DHT22;61072;47.808;7.636;2022-10-26T19:38:11;16.00;99.90
21031;DHT22;61072;47.808;7.636;2022-10-26T19:40:54;16.10;99.90
21031;DHT22;61072;47.808;7.636;2022-10-26T19:43:30;16.10;99.90
21031;DHT22;61072;47.808;7.636;2022-10-26T19:46:10;16.00;99.90
21031;DHT22;61072;47.808;7.636;2022-10-26T19:48:41;16.00;99.90
21031;DHT22;61072;47.808;7.636;2022-10-26T19:51:16;15.90;99.90
